Time;durP1;ratioP1;P1;durP2;ratioP2;P2;SDS_P1;SDS_P2;PMS_P1;PMS_P2;Temp;Humidity;BMP_temperature;BMP_pressure;BME280_temperature;BME280_humidity;BME280_pressure;Samples;Min_cycle;Max_cycle;Signal;HPM_P1;HPM_P2
2021/06/03 04:44:05;;;;;;;5.30;2.50;;;;;;;13.12;72.54;99914.33;1659113;84;21053;-39
2021/06/03 04:46:32;;;;;;;6.05;2.62;;;;;;;13.20;71.96;99911.11;1643339;84;21244;-38
2021/06/03 04:49:01;;;;;;;3.58;2.20;;;;;;;13.26;70.92;99911.91;1670602;84;21272;-38
2021/06/03 04:51:28;;;;;;;6.85;2.22;;;;;;;13.34;71.04;99914.88;1658939;84;21197;-39
2021/06/03 04:54:00;;;;;;;5.55;2.55;;;;;;;13.40;70.85;99916.94;1681878;83;21690;-39
2021/06/03 04:56:32;;;;;;;5.75;2.52;;;;;;;13.46;70.59;99912.03;1678048;84;21673;-39
2021/06/03 04:58:59;;;;;;;;;;;;;;;13.53;69.76;99907.94;1670889;84;21143;-43
2021/06/03 05:01:27;;;;;;;5.12;2.52;;;;;;;13.61;70.29;99913.05;1675229;84;20660;-39
2021/06/03 05:04:01;;;;;;;3.30;2.30;;;;;;;13.65;68.17;99916.05;1683108;84;21092;-39
2021/06/03 05:06:30;;;;;;;6.40;2.15;;;;;;;13.71;68.01;99912.44;1661426;85;21132;-40
2021/06/03 05:09:00;;;;;;;7.33;1.92;;;;;;;13.74;67.93;99922.88;1660997;84;21157;-39
2021/06/03 05:11:29;;;;;;;4.42;2.00;;;;;;;13.78;67.02;99916.67;1656434;84;21241;-43
2021/06/03 05:13:57;;;;;;;6.65;2.33;;;;;;;13.83;68.37;99909.57;1628831;84;21244;-44
2021/06/03 05:16:25;;;;;;;10.53;2.22;;;;;;;13.86;68.42;99908.21;1632195;84;21175;-44
2021/06/03 05:18:52;;;;;;;3.22;1.90;;;;;;;13.89;67.53;99908.58;1661711;83;21697;-44
2021/06/03 05:21:20;;;;;;;6.15;1.82;;;;;;;13.92;67.27;99911.17;1680316;83;21150;-44
2021/06/03 05:23:47;;;;;;;6.62;2.20;;;;;;;13.92;66.35;99904.59;1679590;83;21134;-44
2021/06/03 05:26:17;;;;;;;5.50;2.05;;;;;;;13.93;66.44;99909.81;1669148;83;21981;-40
2021/06/03 05:29:14;;;;;;;4.12;2.10;;;;;;;13.94;66.49;99913.31;1676766;83;21382;-40
2021/06/03 05:31:45;;;;;;;9.15;2.70;;;;;;;13.95;66.50;99917.67;1659545;84;21207;-44
2021/06/03 05:34:16;;;;;;;4.95;2.70;;;;;;;13.95;66.41;99909.78;1638557;85;21373;-44
2021/06/03 05:37:22;;;;;;;5.08;1.65;;;;;;;13.97;66.36;99913.23;1639987;85;21204;-44
2021/06/03 05:39:55;;;;;;;6.20;1.92;;;;;;;13.97;67.29;99908.84;1667837;83;21142;-44
2021/06/03 05:42:23;;;;;;;7.17;2.15;;;;;;;13.99;66.39;99915.41;1730967;75;21551;-41
2021/06/03 05:44:51;;;;;;;8.15;2.10;;;;;;;14.02;66.23;99910.06;1756996;79;21108;-44
2021/06/03 05:47:42;;;;;;;3.00;1.98;;;;;;;14.05;66.59;99901.67;1754609;78;21163;-44
2021/06/03 05:50:21;;;;;;;12.07;2.12;;;;;;;14.09;65.99;99906.44;1729430;79;21675;-40
2021/06/03 05:53:05;;;;;;;6.45;2.80;;;;;;;14.12;65.93;99906.36;1633029;83;21087;-39
2021/06/03 05:55:35;;;;;;;4.25;2.42;;;;;;;14.15;65.35;99904.10;1740946;79;21016;-40
2021/06/03 06:01:29;;;;;;;11.93;2.02;;;;;;;14.22;64.89;99906.59;1760005;78;21157;-39
2021/06/03 06:06:33;;;;;;;5.05;2.30;;;;;;;14.35;63.13;99901.48;1745549;80;21446;-44
2021/06/03 06:19:19;;;;;;;3.72;2.00;;;;;;;14.49;63.53;99892.44;1721337;80;21291;-43
2021/06/03 06:41:40;;;;;;;4.22;2.35;;;;;;;14.88;61.53;99904.69;1682112;82;21131;-43
2021/06/03 06:44:09;;;;;;;7.62;2.00;;;;;;;14.92;60.04;99898.05;1687359;82;21071;-45
2021/06/03 06:49:36;;;;;;;3.55;2.10;;;;;;;14.96;61.26;99898.36;1686379;82;21535;-39
2021/06/03 06:57:00;;;;;;;5.87;1.82;;;;;;;15.07;61.76;99896.34;1697078;81;21675;-39
2021/06/03 06:59:35;;;;;;;6.42;2.00;;;;;;;15.09;61.86;99900.69;1692519;81;21086;-44
2021/06/03 07:02:13;;;;;;;3.25;2.00;;;;;;;15.10;62.04;99903.73;1713029;80;21703;-43
2021/06/03 07:04:57;;;;;;;10.38;2.30;;;;;;;15.12;60.99;99905.00;1710117;80;21538;-44
2021/06/03 07:10:00;;;;;;;6.33;2.33;;;;;;;15.15;60.98;99916.80;1708132;81;21085;-43
2021/06/03 07:12:40;;;;;;;8.13;2.12;;;;;;;15.19;61.89;99903.97;1689387;81;21169;-44
2021/06/03 07:15:20;;;;;;;15.58;2.10;;;;;;;15.23;61.06;99908.23;1656409;82;22166;-44
2021/06/03 07:18:00;;;;;;;7.45;2.27;;;;;;;15.28;60.53;99908.98;1676296;83;21998;-39
2021/06/03 07:20:31;;;;;;;7.85;2.50;;;;;;;15.30;60.06;99908.48;1698645;82;21104;-40
2021/06/03 07:23:04;;;;;;;2.75;1.90;;;;;;;15.29;59.96;99916.44;1678973;82;21666;-39
2021/06/03 07:25:42;;;;;;;10.08;2.30;;;;;;;15.28;60.97;99915.58;1703307;81;22050;-39
2021/06/03 07:28:24;;;;;;;6.10;2.77;;;;;;;15.29;60.84;99921.70;1716498;81;21132;-40
2021/06/03 07:30:57;;;;;;;6.43;1.90;;;;;;;15.28;61.83;99918.67;1712946;78;21196;-38
2021/06/03 07:33:52;;;;;;;6.55;2.20;;;;;;;15.27;60.04;99913.84;1774165;78;21861;-39
2021/06/03 07:46:00;;;;;;;2.87;1.67;;;;;;;15.17;60.80;99925.52;1762850;79;21220;-44
2021/06/03 07:51:36;;;;;;;3.22;1.95;;;;;;;15.22;61.99;99943.40;1750679;80;21205;-40
2021/06/03 08:03:33;;;;;;;6.83;2.35;;;;;;;14.91;62.10;99963.03;1729945;79;21136;-42
2021/06/03 08:11:27;;;;;;;4.35;2.70;;;;;;;14.93;63.74;99968.25;1777079;78;21240;-43
2021/06/03 08:14:10;;;;;;;6.72;2.42;;;;;;;14.97;63.13;99969.92;1779508;78;21034;-39
2021/06/03 08:16:57;;;;;;;2.12;1.80;;;;;;;14.96;62.46;99973.02;1748711;79;22129;-43
2021/06/03 08:20:00;;;;;;;6.15;2.05;;;;;;;14.97;62.67;99969.47;1767772;79;21694;-40
2021/06/03 08:22:55;;;;;;;3.33;1.80;;;;;;;14.96;63.10;99969.48;1685028;81;21119;-44
2021/06/03 08:29:41;;;;;;;2.70;1.95;;;;;;;14.97;62.53;99968.61;1775485;78;21444;-44
2021/06/03 08:34:59;;;;;;;2.85;1.62;;;;;;;15.01;62.40;99972.88;1762498;79;21506;-40
2021/06/03 08:39:53;;;;;;;7.92;2.17;;;;;;;15.06;62.62;99978.46;1758117;79;21673;-40
2021/06/03 08:45:14;;;;;;;4.25;2.02;;;;;;;15.10;63.00;99975.31;1771806;80;21176;-44
2021/06/03 08:47:47;;;;;;;6.03;2.15;;;;;;;15.15;63.17;99980.03;1724036;81;21970;-40
2021/06/03 08:50:22;;;;;;;9.20;2.27;;;;;;;15.17;63.65;99982.17;1796143;77;21065;-44
2021/06/03 08:52:57;;;;;;;8.38;2.00;;;;;;;15.18;63.00;99976.85;1783996;78;21057;-40
2021/06/03 08:58:23;;;;;;;9.60;2.30;;;;;;;15.18;63.45;99978.63;1800494;78;21136;-40
2021/06/03 09:01:11;;;;;;;7.50;2.20;;;;;;;15.16;63.24;99976.03;1802566;76;21564;-38
2021/06/03 09:03:49;;;;;;;6.22;2.10;;;;;;;15.17;64.08;99983.48;1701491;82;21062;-43
2021/06/03 09:06:17;;;;;;;6.67;2.10;;;;;;;15.23;64.36;99987.29;1626777;85;21151;-43
2021/06/03 09:12:40;;;;;;;7.75;2.22;;;;;;;15.31;64.32;99981.86;1671199;83;21237;-38
2021/06/03 09:15:30;;;;;;;12.00;2.33;;;;;;;15.34;63.84;99993.17;1644776;83;21538;-43
2021/06/03 09:18:09;;;;;;;;;;;;;;;15.36;64.29;99989.17;1632358;85;21093;-39
2021/06/03 09:26:35;;;;;;;5.72;2.20;;;;;;;15.37;65.56;99990.93;1618560;86;21185;-43
2021/06/03 09:33:18;;;;;;;7.53;2.08;;;;;;;15.44;64.78;99984.59;1605536;86;21478;-43
2021/06/03 09:36:38;;;;;;;7.53;2.15;;;;;;;15.48;64.55;99987.58;1628818;86;21215;-43
2021/06/03 09:42:35;;;;;;;6.90;2.10;;;;;;;15.52;64.10;99987.03;1621816;86;21143;-41
2021/06/03 09:45:58;;;;;;;7.30;2.00;;;;;;;15.55;63.31;99983.88;1645232;84;21408;-37
2021/06/03 09:48:52;;;;;;;6.35;2.17;;;;;;;15.64;63.09;99991.57;1653565;84;21124;-39
2021/06/03 09:51:57;;;;;;;6.65;3.25;;;;;;;15.73;63.18;99982.57;1692674;82;21135;-40
2021/06/03 09:54:58;;;;;;;4.20;1.77;;;;;;;15.85;62.12;99993.25;1679345;82;21074;-43
2021/06/03 09:57:48;;;;;;;9.90;2.20;;;;;;;15.93;61.38;99985.98;1675741;83;21466;-43
2021/06/03 10:03:01;;;;;;;11.50;2.15;;;;;;;16.04;61.22;99978.66;1730504;80;21234;-39
2021/06/03 10:05:28;;;;;;;6.45;2.10;;;;;;;16.09;61.02;99978.08;1710413;81;21072;-43
2021/06/03 10:08:05;;;;;;;4.72;2.25;;;;;;;16.10;60.70;99996.95;1702634;81;21062;-40
2021/06/03 10:10:39;;;;;;;5.70;2.30;;;;;;;16.11;61.84;99985.48;1701905;81;21102;-38
2021/06/03 10:13:10;;;;;;;6.78;2.75;;;;;;;16.13;60.86;100003.48;1679013;82;21051;-39
2021/06/03 10:15:39;;;;;;;3.98;1.80;;;;;;;16.13;60.51;100007.90;1656758;82;21090;-39
2021/06/03 10:20:42;;;;;;;5.70;2.30;;;;;;;16.16;60.92;100002.52;1679944;82;21702;-43
2021/06/03 10:23:15;;;;;;;4.85;1.75;;;;;;;16.20;60.98;100002.86;1674424;83;21042;-39
2021/06/03 10:25:45;;;;;;;3.67;1.80;;;;;;;16.25;60.89;100009.34;1644541;83;21084;-39
2021/06/03 10:28:19;;;;;;;7.28;2.72;;;;;;;16.29;60.38;100005.68;1674488;83;21144;-39
2021/06/03 10:30:55;;;;;;;2.95;2.05;;;;;;;16.31;59.60;100005.20;1692353;82;21024;-39
2021/06/03 10:33:27;;;;;;;3.60;2.10;;;;;;;16.33;60.82;100009.97;1717857;79;21052;-44
2021/06/03 10:36:01;;;;;;;3.10;1.77;;;;;;;16.36;59.39;99998.89;1720701;81;21062;-39
2021/06/03 10:38:28;;;;;;;4.75;1.85;;;;;;;16.39;60.47;100003.20;1710891;81;21071;-44
2021/06/03 10:41:06;;;;;;;5.58;2.20;;;;;;;16.40;60.82;100018.12;1714986;82;21193;-44
2021/06/03 10:43:37;;;;;;;2.60;1.62;;;;;;;16.39;59.84;100007.16;1684997;82;21117;-42
2021/06/03 10:46:11;;;;;;;2.60;1.65;;;;;;;16.41;60.80;100010.64;1705286;82;21712;-40
2021/06/03 10:51:23;;;;;;;5.78;2.17;;;;;;;16.39;60.13;100026.96;1714135;81;21189;-44
2021/06/03 10:53:52;;;;;;;11.85;2.37;;;;;;;16.34;60.34;100017.84;1682703;83;21665;-40
2021/06/03 10:56:26;;;;;;;6.05;2.30;;;;;;;16.31;60.32;100028.50;1685357;82;21093;-44
2021/06/03 11:52:21;;;;;;;5.25;2.35;;;;;;;15.85;64.38;100061.38;1716772;81;21441;-38
2021/06/03 11:55:06;;;;;;;4.47;2.12;;;;;;;15.80;63.34;100065.04;1656849;83;21097;-44
2021/06/03 12:05:16;;;;;;;5.45;1.85;;;;;;;15.68;61.20;100078.94;1654864;81;21121;-44
2021/06/03 12:11:44;;;;;;;4.92;1.77;;;;;;;15.57;62.90;100107.75;1664806;83;21222;-43
2021/06/03 12:14:20;;;;;;;4.95;2.08;;;;;;;15.52;63.56;100112.27;1669284;84;21167;-39
2021/06/03 12:16:55;;;;;;;6.00;2.10;;;;;;;15.49;63.75;100120.27;1669067;84;21196;-43
2021/06/03 12:19:32;;;;;;;7.03;2.08;;;;;;;15.46;64.40;100122.95;1652514;84;21082;-43
2021/06/03 12:22:04;;;;;;;4.97;1.82;;;;;;;15.45;64.96;100135.27;1714321;81;21104;-44
2021/06/03 12:38:49;;;;;;;5.25;1.60;;;;;;;15.34;66.60;100131.55;1712757;81;21126;-43
2021/06/03 12:41:28;;;;;;;3.70;1.80;;;;;;;15.33;66.39;100132.91;1676080;82;21205;-43
2021/06/03 12:44:15;;;;;;;2.40;1.67;;;;;;;15.32;66.64;100135.13;1694431;82;21106;-43
2021/06/03 12:46:47;;;;;;;6.10;2.00;;;;;;;15.29;67.08;100137.81;1676466;83;21122;-43
2021/06/03 12:49:26;;;;;;;9.15;1.60;;;;;;;15.27;66.61;100141.81;1687689;81;21080;-43
2021/06/03 12:52:03;;;;;;;1.75;1.55;;;;;;;15.29;66.93;100151.86;1685269;83;21134;-40
2021/06/03 12:54:39;;;;;;;4.78;1.60;;;;;;;15.30;66.21;100144.82;1689999;82;21575;-39
2021/06/03 12:57:09;;;;;;;2.00;1.72;;;;;;;15.35;66.50;100153.50;1692839;83;21124;-40
2021/06/03 12:59:38;;;;;;;3.80;1.80;;;;;;;15.37;65.89;100153.03;1684719;82;21061;-43
2021/06/03 13:02:10;;;;;;;3.77;1.77;;;;;;;15.40;66.42;100158.22;1703860;82;21117;-44
2021/06/03 13:04:48;;;;;;;7.73;1.60;;;;;;;15.43;65.14;100163.44;1704752;82;21707;-43
2021/06/03 13:07:32;;;;;;;3.25;1.40;;;;;;;15.47;65.30;100166.86;1676590;84;21624;-44
2021/06/03 13:10:02;;;;;;;2.42;1.60;;;;;;;15.50;64.77;100166.35;1679099;84;21054;-43
2021/06/03 13:12:31;;;;;;;5.28;1.80;;;;;;;15.56;63.46;100164.03;1679539;83;21161;-39
2021/06/03 13:15:02;;;;;;;7.22;1.87;;;;;;;15.61;63.72;100167.44;1685635;82;21720;-39
2021/06/03 13:17:36;;;;;;;2.37;1.72;;;;;;;15.65;63.75;100164.73;1668337;84;21668;-39
2021/06/03 13:20:12;;;;;;;6.37;2.00;;;;;;;15.69;63.06;100158.47;1692216;82;21090;-40
2021/06/03 13:22:42;;;;;;;3.17;1.72;;;;;;;15.71;63.07;100159.74;1696468;81;21180;-44
2021/06/03 13:25:10;;;;;;;2.55;1.82;;;;;;;15.76;63.50;100155.69;1664650;83;21140;-44
2021/06/03 13:27:40;;;;;;;2.75;1.52;;;;;;;15.81;62.61;100159.09;1674728;83;21108;-40
2021/06/03 13:30:16;;;;;;;4.08;1.90;;;;;;;15.86;62.68;100162.03;1677675;84;21169;-39
2021/06/03 13:32:45;;;;;;;2.05;1.60;;;;;;;15.88;61.42;100158.89;1688541;83;21132;-43
2021/06/03 13:35:17;;;;;;;3.10;1.70;;;;;;;15.89;61.49;100165.94;1683697;83;21095;-44
2021/06/03 13:37:48;;;;;;;1.70;1.57;;;;;;;15.90;61.10;100170.30;1690920;82;21233;-44
2021/06/03 13:40:21;;;;;;;5.12;1.92;;;;;;;15.89;61.91;100174.30;1661843;82;21073;-40
2021/06/03 13:42:59;;;;;;;2.10;1.60;;;;;;;15.89;61.89;100172.53;1668751;83;21555;-39
2021/06/03 13:45:31;;;;;;;2.80;1.65;;;;;;;15.91;61.89;100177.76;1702346;82;21583;-44
2021/06/03 13:48:09;;;;;;;3.17;1.55;;;;;;;15.93;61.72;100175.48;1703759;81;21104;-41
2021/06/03 13:50:57;;;;;;;3.72;1.60;;;;;;;15.96;61.83;100175.88;1686195;82;21118;-43
2021/06/03 13:53:30;;;;;;;3.45;1.77;;;;;;;15.99;61.65;100177.56;1679567;82;21105;-40
2021/06/03 13:56:16;;;;;;;8.90;2.45;;;;;;;15.98;61.72;100179.80;1693063;83;21646;-40
2021/06/03 13:59:04;;;;;;;5.08;1.70;;;;;;;15.98;61.87;100189.89;1683236;82;21140;-40
2021/06/03 14:01:42;;;;;;;6.87;2.05;;;;;;;15.99;61.51;100193.40;1692453;83;21175;-40
2021/06/03 14:04:21;;;;;;;12.05;3.55;;;;;;;15.99;62.11;100192.08;1669015;83;21512;-43
2021/06/03 14:06:57;;;;;;;5.10;2.05;;;;;;;15.99;61.28;100191.62;1673094;84;21136;-44
2021/06/03 14:09:30;;;;;;;4.97;2.10;;;;;;;16.01;61.77;100195.57;1681051;83;21658;-43
2021/06/03 14:12:25;;;;;;;9.20;2.52;;;;;;;16.00;62.05;100191.17;1691260;82;21196;-39
2021/06/03 14:15:05;;;;;;;7.72;1.90;;;;;;;15.99;62.13;100193.40;1697835;83;21764;-43
2021/06/03 14:17:33;;;;;;;5.08;2.50;;;;;;;15.98;62.27;100195.63;1668415;83;21172;-44
2021/06/03 14:20:02;;;;;;;16.07;2.72;;;;;;;15.98;61.85;100191.67;1673933;83;21077;-43
2021/06/03 14:22:34;;;;;;;2.05;1.90;;;;;;;15.96;61.62;100190.39;1678813;83;21161;-41
2021/06/03 14:25:10;;;;;;;14.38;3.45;;;;;;;15.96;61.50;100188.63;1694567;83;21031;-39
2021/06/03 14:27:47;;;;;;;7.08;2.02;;;;;;;15.98;61.33;100192.53;1675012;82;21116;-39
2021/06/03 14:30:26;;;;;;;13.45;2.10;;;;;;;15.95;61.18;100190.84;1682099;84;21061;-40
2021/06/03 14:33:00;;;;;;;5.17;3.17;;;;;;;15.95;61.52;100194.80;1659190;84;21224;-43
2021/06/03 14:38:06;;;;;;;10.53;2.95;;;;;;;15.93;61.46;100194.41;1683637;82;21073;-43
2021/06/03 14:43:22;;;;;;;7.30;2.60;;;;;;;15.92;61.99;100193.55;1660210;84;21615;-39
2021/06/03 14:45:52;;;;;;;5.70;2.00;;;;;;;15.91;61.73;100199.73;1698608;82;21280;-44
2021/06/03 14:48:24;;;;;;;7.10;2.10;;;;;;;15.90;61.24;100195.36;1692075;83;21094;-43
2021/06/03 14:50:53;;;;;;;8.55;1.90;;;;;;;15.90;61.78;100195.81;1686346;83;21181;-39
2021/06/03 14:53:22;;;;;;;4.62;2.10;;;;;;;15.89;61.55;100198.05;1674943;83;21088;-44
2021/06/03 14:55:51;;;;;;;7.12;2.17;;;;;;;15.89;61.42;100204.19;1650725;85;21109;-40
2021/06/03 14:58:19;;;;;;;2.47;1.90;;;;;;;15.90;62.03;100199.77;1646101;85;21092;-39
2021/06/03 15:00:57;;;;;;;4.08;1.92;;;;;;;15.90;62.22;100200.64;1702382;82;21064;-43
2021/06/03 15:03:24;;;;;;;6.90;1.92;;;;;;;15.92;61.73;100204.09;1690954;82;21115;-39
2021/06/03 15:05:51;;;;;;;8.93;2.27;;;;;;;15.95;61.21;100200.08;1669195;82;21214;-39
2021/06/03 15:08:24;;;;;;;5.10;2.10;;;;;;;16.01;60.85;100212.72;1689214;81;21626;-44
2021/06/03 15:10:54;;;;;;;4.55;1.85;;;;;;;16.03;60.70;100205.17;1695135;82;21183;-44
2021/06/03 15:13:26;;;;;;;9.03;3.30;;;;;;;16.07;61.04;100215.21;1682931;83;21057;-40
2021/06/03 15:15:56;;;;;;;2.87;2.02;;;;;;;16.07;61.38;100212.12;1699292;82;21186;-43
2021/06/03 15:18:27;;;;;;;3.52;2.08;;;;;;;16.08;61.41;100214.30;1670271;82;21117;-43
2021/06/03 15:20:55;;;;;;;3.25;1.72;;;;;;;16.08;61.65;100223.08;1707339;81;21138;-44
2021/06/03 15:23:25;;;;;;;7.12;3.12;;;;;;;16.08;61.88;100224.86;1720425;82;21147;-40
2021/06/03 15:25:52;;;;;;;2.80;1.82;;;;;;;16.08;61.96;100228.81;1690654;82;21136;-44
2021/06/03 15:28:19;;;;;;;9.35;2.00;;;;;;;16.06;62.08;100231.92;1706128;82;21552;-39
2021/06/03 15:30:49;;;;;;;9.80;3.85;;;;;;;16.04;62.46;100229.78;1684692;83;21057;-42
2021/06/03 15:33:16;;;;;;;3.58;1.90;;;;;;;16.02;62.76;100236.87;1686466;83;21120;-39
2021/06/03 15:35:47;;;;;;;5.95;1.98;;;;;;;15.99;62.69;100239.11;1678048;82;21581;-40
2021/06/03 15:38:19;;;;;;;5.28;1.95;;;;;;;15.96;62.88;100236.11;1692274;83;21173;-43
2021/06/03 15:40:48;;;;;;;3.98;1.82;;;;;;;15.98;63.17;100241.34;1682389;83;21080;-44
2021/06/03 15:43:16;;;;;;;3.80;1.75;;;;;;;15.93;63.30;100246.72;1682904;84;21457;-39
2021/06/03 15:45:44;;;;;;;13.40;3.67;;;;;;;15.94;63.52;100243.63;1682288;82;21579;-43
2021/06/03 15:48:13;;;;;;;8.20;2.17;;;;;;;15.95;63.46;100254.63;1704314;81;21109;-43
2021/06/03 15:50:47;;;;;;;3.35;2.10;;;;;;;15.95;63.66;100254.17;1689419;83;21095;-39
2021/06/03 15:53:18;;;;;;;4.97;1.85;;;;;;;15.97;63.24;100254.13;1676997;82;21115;-39
2021/06/03 15:55:50;;;;;;;7.25;2.20;;;;;;;15.99;63.02;100255.41;1689993;82;21037;-44
2021/06/03 15:58:18;;;;;;;3.87;2.10;;;;;;;15.99;63.25;100260.68;1689919;83;21171;-40
2021/06/03 16:00:48;;;;;;;2.92;2.30;;;;;;;15.95;63.32;100259.45;1704348;82;21367;-44
2021/06/03 16:03:21;;;;;;;6.62;2.08;;;;;;;15.95;63.32;100259.91;1652192;84;21130;-40
2021/06/03 16:05:54;;;;;;;15.28;2.35;;;;;;;15.94;63.44;100266.05;1696298;83;21072;-39
2021/06/03 16:08:24;;;;;;;3.25;2.00;;;;;;;15.93;63.65;100261.69;1719224;82;21648;-43
2021/06/03 16:10:52;;;;;;;7.87;2.37;;;;;;;15.93;64.00;100264.33;1703488;81;21705;-39
2021/06/03 16:13:19;;;;;;;3.83;2.05;;;;;;;15.93;64.20;100263.87;1688232;83;21107;-43
2021/06/03 16:15:49;;;;;;;6.70;2.45;;;;;;;15.93;64.32;100273.10;1701030;82;21187;-43
2021/06/03 16:18:21;;;;;;;3.92;2.20;;;;;;;15.93;64.57;100268.28;1714318;82;21074;-40
